Time;durP1;ratioP1;P1;durP2;ratioP2;P2;SDS_P1;SDS_P2;PMS_P1;PMS_P2;Temp;Humidity;BMP_temperature;BMP_pressure;BME280_temperature;BME280_humidity;BME280_pressure;Samples;Min_cycle;Max_cycle;Signal;HPM_P1;HPM_P2
2023/05/01 00:01:57;;;;;;;5.57;3.17;;;10.60;99.90;;;11.25;100.00;98174.22;4928669;29;20494;-76
2023/05/01 00:04:26;;;;;;;4.07;3.10;;;10.60;99.90;;;11.28;100.00;98168.63;4929461;29;20466;-76
2023/05/01 00:06:56;;;;;;;8.95;3.20;;;10.60;99.90;;;11.16;100.00;98157.03;4928433;29;20886;-76
2023/05/01 00:09:27;;;;;;;4.70;2.80;;;10.50;99.90;;;11.20;100.00;98160.91;4926637;29;20206;-76
2023/05/01 00:11:57;;;;;;;3.73;2.90;;;10.50;99.90;;;11.19;100.00;98159.28;4928482;29;20533;-76
2023/05/01 00:14:29;;;;;;;3.07;2.53;;;10.50;99.90;;;11.14;100.00;98153.81;4927770;29;20478;-76
2023/05/01 00:16:57;;;;;;;7.37;2.80;;;10.50;99.90;;;11.16;100.00;98154.44;4928614;29;20493;-76
2023/05/01 00:19:27;;;;;;;6.63;3.50;;;10.40;99.90;;;11.15;100.00;98149.38;4927323;29;20493;-76
2023/05/01 00:21:56;;;;;;;6.60;3.20;;;10.40;99.90;;;11.19;100.00;98148.00;4928293;29;20470;-76
2023/05/01 00:24:26;;;;;;;3.90;3.10;;;10.40;99.90;;;11.11;100.00;98141.09;4929097;29;20474;-76
2023/05/01 00:26:55;;;;;;;4.80;3.00;;;10.40;99.90;;;11.03;100.00;98136.81;4928125;29;20506;-77
2023/05/01 00:29:26;;;;;;;15.30;3.00;;;10.40;99.90;;;10.97;100.00;98145.38;4928524;29;20466;-78
2023/05/01 00:31:55;;;;;;;4.63;3.00;;;10.30;99.90;;;10.96;100.00;98140.34;4929112;29;20543;-76
2023/05/01 00:34:25;;;;;;;4.20;3.10;;;10.30;99.90;;;10.95;100.00;98136.13;4928830;29;20466;-77
2023/05/01 00:36:56;;;;;;;3.13;2.53;;;10.20;99.90;;;10.93;100.00;98130.28;4929725;29;20481;-76
2023/05/01 00:39:26;;;;;;;2.80;2.30;;;10.20;99.90;;;10.95;100.00;98129.06;4926488;29;20557;-77
2023/05/01 00:41:57;;;;;;;8.63;2.70;;;10.20;99.90;;;10.95;100.00;98128.25;4925066;29;21055;-76
2023/05/01 00:44:28;;;;;;;4.60;3.07;;;10.20;99.90;;;10.91;100.00;98124.41;4925538;29;20521;-76
2023/05/01 00:47:01;;;;;;;4.80;3.10;;;10.20;99.90;;;10.89;100.00;98124.59;4927067;29;22293;-78
2023/05/01 00:49:31;;;;;;;4.07;2.47;;;10.20;99.90;;;10.85;100.00;98127.78;4927620;29;20501;-76
2023/05/01 00:52:00;;;;;;;4.70;3.20;;;10.10;99.90;;;10.84;100.00;98115.69;4928586;29;20529;-76
2023/05/01 00:54:31;;;;;;;4.53;2.70;;;10.10;99.90;;;10.78;100.00;98116.44;4928969;29;20558;-79
2023/05/01 00:57:01;;;;;;;3.27;2.53;;;10.10;99.90;;;10.77;100.00;98117.41;4927746;29;20976;-76
2023/05/01 00:59:32;;;;;;;5.47;2.47;;;10.10;99.90;;;10.78;100.00;98108.59;4927152;29;21261;-76
2023/05/01 01:02:03;;;;;;;5.70;2.63;;;10.10;99.90;;;10.72;100.00;98102.31;4929403;29;20551;-76
2023/05/01 01:04:33;;;;;;;16.80;2.67;;;10.10;99.90;;;10.68;100.00;98105.47;4928434;29;20501;-77
2023/05/01 01:07:11;;;;;;;3.70;2.37;;;10.00;99.90;;;10.65;100.00;98096.19;4927072;29;20581;-77
2023/05/01 01:09:58;;;;;;;3.23;2.63;;;9.90;99.90;;;10.66;100.00;98097.78;4927318;29;20558;-77
2023/05/01 01:12:34;;;;;;;4.80;2.63;;;9.90;99.90;;;10.62;100.00;98091.31;4927238;29;21020;-76
2023/05/01 01:15:18;;;;;;;7.40;2.83;;;9.90;99.90;;;10.65;100.00;98096.19;4928309;29;21027;-76
2023/05/01 01:17:59;;;;;;;3.80;2.60;;;9.80;99.90;;;10.61;100.00;98087.09;4922324;29;20518;-76
2023/05/01 01:20:45;;;;;;;7.60;2.80;;;9.80;99.90;;;10.53;100.00;98082.78;4916795;29;20481;-75
2023/05/01 01:23:53;;;;;;;9.77;3.20;;;9.80;99.90;;;10.44;100.00;98076.06;4917991;29;20882;-76
2023/05/01 01:26:58;;;;;;;2.60;2.37;;;9.80;99.90;;;10.38;100.00;98082.03;4919623;29;21196;-75
2023/05/01 01:30:09;;;;;;;3.10;2.20;;;9.70;99.90;;;10.38;100.00;98075.97;4913496;29;20470;-76
2023/05/01 01:33:17;;;;;;;4.20;2.43;;;9.70;99.90;;;10.37;100.00;98077.81;4909907;29;20478;-76
2023/05/01 01:35:57;;;;;;;3.17;2.50;;;9.60;99.90;;;10.30;100.00;98076.91;4921726;29;20913;-76
2023/05/01 01:38:37;;;;;;;8.93;2.60;;;9.60;99.90;;;10.32;100.00;98085.38;4922084;29;20837;-76
2023/05/01 01:41:13;;;;;;;4.23;2.73;;;9.50;99.90;;;10.31;100.00;98078.53;4922654;29;20466;-76
2023/05/01 01:43:50;;;;;;;3.50;2.57;;;9.50;99.90;;;10.25;100.00;98074.03;4921506;29;20462;-76
2023/05/01 01:46:22;;;;;;;6.60;2.27;;;9.50;99.90;;;10.20;100.00;98086.84;4921683;29;20470;-76
2023/05/01 01:48:57;;;;;;;2.43;2.23;;;9.50;99.90;;;10.19;100.00;98080.00;4922215;29;20468;-76
2023/05/01 01:51:31;;;;;;;7.20;2.30;;;9.40;99.90;;;10.21;100.00;98087.66;4921379;29;20470;-76
2023/05/01 01:54:04;;;;;;;9.00;3.17;;;9.40;99.90;;;10.21;100.00;98083.22;4921693;29;20526;-76
2023/05/01 01:56:37;;;;;;;3.70;2.27;;;9.40;99.90;;;10.17;100.00;98081.19;4922859;29;20997;-76
2023/05/01 01:59:10;;;;;;;6.37;2.90;;;9.40;99.90;;;10.08;100.00;98070.00;4921906;29;20981;-76
2023/05/01 02:01:42;;;;;;;3.03;2.60;;;9.40;99.90;;;10.06;100.00;98075.41;4920913;29;20588;-76
2023/05/01 02:04:15;;;;;;;2.30;2.10;;;9.30;99.90;;;10.04;100.00;98071.34;4919819;29;20522;-76
2023/05/01 02:06:48;;;;;;;6.50;2.47;;;9.30;99.90;;;10.04;100.00;98076.56;4922892;29;20492;-76
2023/05/01 02:09:21;;;;;;;3.43;2.60;;;9.40;99.90;;;10.03;100.00;98067.13;4921562;29;20474;-76
2023/05/01 02:11:54;;;;;;;2.67;2.47;;;9.40;99.90;;;9.99;100.00;98064.06;4919027;29;20474;-76
2023/05/01 02:14:27;;;;;;;24.30;2.30;;;9.30;99.90;;;9.98;100.00;98062.44;4920334;29;20502;-77
2023/05/01 02:16:57;;;;;;;4.70;2.53;;;9.20;99.90;;;9.93;100.00;98064.78;4920452;29;20498;-76
2023/05/01 02:19:28;;;;;;;3.70;2.60;;;9.20;99.90;;;9.86;100.00;98063.88;4922672;29;20932;-76
2023/05/01 02:22:01;;;;;;;3.87;2.50;;;9.20;99.90;;;9.84;100.00;98060.66;4920965;29;20473;-76
2023/05/01 02:24:33;;;;;;;3.20;2.20;;;9.20;99.90;;;9.88;100.00;98061.09;4921431;29;20458;-76
2023/05/01 02:27:15;;;;;;;3.07;2.50;;;9.20;99.90;;;9.86;100.00;98058.66;4921809;29;20621;-76
2023/05/01 02:29:46;;;;;;;9.97;2.03;;;9.20;99.90;;;9.86;100.00;98055.25;4920499;29;20543;-76
2023/05/01 02:32:16;;;;;;;3.93;2.50;;;9.10;99.90;;;9.82;100.00;98052.19;4918235;29;20553;-76
2023/05/01 02:34:46;;;;;;;4.40;2.63;;;9.10;99.90;;;9.83;100.00;98059.03;4920850;29;20458;-76
2023/05/01 02:37:18;;;;;;;2.60;2.40;;;9.10;99.90;;;9.80;100.00;98056.78;4921659;29;20562;-76
2023/05/01 02:39:47;;;;;;;4.47;2.80;;;9.10;99.90;;;9.77;100.00;98053.72;4920245;29;20459;-76
2023/05/01 02:42:20;;;;;;;3.70;2.63;;;9.10;99.90;;;9.82;100.00;98048.78;4920119;29;20549;-76
2023/05/01 02:44:55;;;;;;;2.97;2.30;;;9.10;99.90;;;9.80;100.00;98042.91;4921240;29;20554;-76
2023/05/01 02:47:26;;;;;;;2.60;2.37;;;9.00;99.90;;;9.73;100.00;98036.81;4920344;29;20486;-76
2023/05/01 02:49:59;;;;;;;3.33;2.37;;;9.00;99.90;;;9.69;100.00;98040.75;4920194;29;21588;-76
2023/05/01 02:52:31;;;;;;;4.23;2.37;;;9.00;99.90;;;9.68;100.00;98041.78;4920224;29;20988;-76
2023/05/01 02:55:02;;;;;;;5.20;2.50;;;9.00;99.90;;;9.66;100.00;98030.69;4921048;29;20833;-76
2023/05/01 02:57:34;;;;;;;5.90;2.70;;;9.00;99.90;;;9.66;100.00;98035.91;4920186;29;20554;-76
2023/05/01 03:00:08;;;;;;;6.40;2.30;;;8.90;99.90;;;9.65;100.00;98036.91;4920195;29;20538;-76
2023/05/01 03:02:37;;;;;;;4.30;3.20;;;8.90;99.90;;;9.64;100.00;98038.72;4920371;29;20510;-76
2023/05/01 03:05:11;;;;;;;3.07;2.20;;;8.90;99.90;;;9.67;100.00;98045.38;4920877;29;20522;-76
2023/05/01 03:07:43;;;;;;;6.83;2.73;;;8.90;99.90;;;9.67;100.00;98040.16;4920878;29;20497;-76
2023/05/01 03:10:13;;;;;;;2.80;2.03;;;8.90;99.90;;;9.65;100.00;98039.53;4920387;29;20454;-77
2023/05/01 03:12:44;;;;;;;2.90;2.10;;;8.90;99.90;;;9.59;100.00;98028.00;4920233;29;20473;-76
2023/05/01 03:15:14;;;;;;;2.37;2.10;;;8.90;99.90;;;9.54;100.00;98032.97;4920767;29;20724;-76
2023/05/01 03:17:42;;;;;;;3.50;2.63;;;8.90;99.90;;;9.48;100.00;98034.47;4920318;29;20922;-76
2023/05/01 03:20:13;;;;;;;5.43;3.60;;;8.80;99.90;;;9.46;100.00;98030.44;4925131;29;20482;-76
2023/05/01 03:22:45;;;;;;;4.30;2.07;;;8.80;99.90;;;9.48;100.00;98034.47;4925537;29;20971;-76
2023/05/01 03:25:15;;;;;;;4.50;2.10;;;8.80;99.90;;;9.45;100.00;98034.03;4924900;29;20473;-76
2023/05/01 03:27:44;;;;;;;3.50;2.07;;;8.80;99.90;;;9.45;100.00;98023.59;4925117;29;20509;-77
2023/05/01 03:30:14;;;;;;;2.87;2.60;;;8.70;99.90;;;9.45;100.00;98021.78;4924739;29;21012;-77
2023/05/01 03:32:44;;;;;;;3.00;2.03;;;8.70;99.90;;;9.45;100.00;98024.41;4925085;29;20515;-76
2023/05/01 03:35:14;;;;;;;10.53;2.10;;;8.70;99.90;;;9.38;100.00;98020.88;4925893;29;20467;-76
2023/05/01 03:37:47;;;;;;;3.53;2.47;;;8.70;99.90;;;9.38;100.00;98018.28;4925222;29;20557;-77
2023/05/01 03:40:18;;;;;;;3.13;2.40;;;8.60;99.90;;;9.34;100.00;98011.78;4925317;29;20502;-77
2023/05/01 03:42:47;;;;;;;3.10;2.10;;;8.70;99.90;;;9.27;100.00;98026.53;4924530;29;21021;-76
2023/05/01 03:45:18;;;;;;;2.83;2.30;;;8.60;99.90;;;9.32;100.00;98021.63;4925971;29;20462;-76
2023/05/01 03:47:47;;;;;;;5.70;2.60;;;8.60;99.90;;;9.32;100.00;98012.97;4924238;29;20581;-77
2023/05/01 03:50:17;;;;;;;3.07;2.10;;;8.60;99.90;;;9.31;100.00;98011.34;4924836;29;20490;-76
2023/05/01 03:52:47;;;;;;;3.23;1.97;;;8.50;99.90;;;9.23;100.00;98012.25;4924983;29;20573;-76
2023/05/01 03:55:19;;;;;;;3.10;2.27;;;8.50;99.90;;;9.26;100.00;98016.31;4925693;29;20846;-76
2023/05/01 03:57:48;;;;;;;3.20;2.07;;;8.50;99.90;;;9.25;100.00;98010.28;4924553;29;20501;-76
2023/05/01 04:00:19;;;;;;;2.90;2.10;;;8.50;99.90;;;9.27;100.00;98010.06;4926512;29;20549;-76
2023/05/01 04:02:48;;;;;;;3.37;2.10;;;8.50;99.90;;;9.24;100.00;98011.25;4926391;29;22521;-76
2023/05/01 04:05:20;;;;;;;3.47;2.53;;;8.50;99.90;;;9.21;100.00;98011.63;4925831;29;20462;-76
2023/05/01 04:07:51;;;;;;;4.70;2.23;;;8.50;99.90;;;9.19;100.00;98008.38;4925708;29;20493;-76
2023/05/01 04:10:21;;;;;;;3.97;2.47;;;8.40;99.90;;;9.19;100.00;98008.38;4925535;29;20557;-76
2023/05/01 04:12:51;;;;;;;2.50;1.93;;;8.40;99.90;;;9.20;100.00;98014.41;4923147;29;20466;-77
2023/05/01 04:15:21;;;;;;;9.93;2.63;;;8.50;99.90;;;9.20;100.00;98015.19;4924988;29;20462;-76
2023/05/01 04:17:52;;;;;;;4.93;2.67;;;8.50;99.90;;;9.16;100.00;98003.53;4924176;29;21028;-77
2023/05/01 04:20:22;;;;;;;2.90;2.23;;;8.40;99.90;;;9.22;100.00;98008.03;4924620;29;20463;-76
2023/05/01 04:22:52;;;;;;;2.30;2.10;;;8.50;99.90;;;9.23;100.00;98003.63;4925220;29;20474;-76
2023/05/01 04:25:23;;;;;;;5.50;3.00;;;8.40;99.90;;;9.25;100.00;98004.25;4925054;29;21110;-77
2023/05/01 04:27:53;;;;;;;2.60;2.07;;;8.50;99.90;;;9.27;100.00;97997.03;4924915;29;20585;-76
2023/05/01 04:30:23;;;;;;;3.43;2.10;;;8.50;99.90;;;9.30;100.00;98005.31;4925478;29;20462;-77
2023/05/01 04:32:53;;;;;;;6.43;2.60;;;8.50;99.90;;;9.31;100.00;98006.94;4923995;29;20553;-77
2023/05/01 04:35:23;;;;;;;18.20;2.50;;;8.50;99.90;;;9.32;100.00;98003.34;4923182;29;20473;-76
2023/05/01 04:37:55;;;;;;;3.07;2.63;;;8.50;99.90;;;9.34;100.00;98011.78;4924213;29;20477;-77
2023/05/01 04:40:25;;;;;;;2.70;1.87;;;8.50;99.90;;;9.35;100.00;98002.97;4926877;29;20469;-76
2023/05/01 04:42:55;;;;;;;2.90;2.20;;;8.60;99.90;;;9.37;100.00;98008.81;4927992;29;20548;-75
2023/05/01 04:45:24;;;;;;;3.27;2.53;;;8.60;99.90;;;9.39;100.00;98012.06;4928564;29;20458;-76
2023/05/01 04:47:54;;;;;;;8.60;2.87;;;8.70;99.90;;;9.34;100.00;98006.56;4927135;29;20474;-77
2023/05/01 04:50:24;;;;;;;4.73;2.73;;;8.60;99.90;;;9.37;100.00;98008.81;4928574;29;20530;-76
2023/05/01 04:52:55;;;;;;;3.67;2.83;;;8.70;99.90;;;9.42;100.00;98006.50;4928788;29;20478;-76
2023/05/01 04:55:24;;;;;;;4.23;2.40;;;8.70;99.90;;;9.41;100.00;98009.25;4927679;29;20462;-77
2023/05/01 04:57:57;;;;;;;5.00;2.60;;;8.70;99.90;;;9.46;100.00;98009.56;4928053;29;20474;-76
2023/05/01 05:00:27;;;;;;;3.20;2.63;;;8.70;99.90;;;9.52;100.00;98011.44;4926035;29;20570;-77
2023/05/01 05:02:57;;;;;;;2.90;2.63;;;8.70;99.90;;;9.56;100.00;98005.69;4927195;29;20545;-77
2023/05/01 05:05:27;;;;;;;2.97;2.30;;;8.70;99.90;;;9.57;100.00;98007.31;4927459;29;20498;-76
2023/05/01 05:07:58;;;;;;;5.10;2.40;;;8.80;99.90;;;9.59;100.00;98009.72;4928018;29;20462;-76
2023/05/01 05:10:28;;;;;;;3.17;2.40;;;8.80;99.90;;;9.57;100.00;98012.53;4927490;29;20853;-76
2023/05/01 05:12:58;;;;;;;2.73;2.20;;;8.80;99.90;;;9.61;100.00;98013.75;4929294;29;20463;-76
2023/05/01 05:15:27;;;;;;;6.30;2.20;;;8.80;99.90;;;9.64;100.00;98011.78;4926747;29;20553;-76
2023/05/01 05:17:56;;;;;;;4.30;2.50;;;8.90;99.90;;;9.68;100.00;98015.66;4927541;29;20526;-77
2023/05/01 05:20:27;;;;;;;3.20;2.30;;;8.90;99.90;;;9.70;100.00;98011.06;4928381;29;20467;-76
2023/05/01 05:22:57;;;;;;;4.50;2.10;;;8.90;99.90;;;9.73;100.00;98013.31;4927284;29;20466;-77
2023/05/01 05:25:28;;;;;;;2.87;2.63;;;8.90;99.90;;;9.75;100.00;98019.16;4927165;29;21155;-77
2023/05/01 05:27:59;;;;;;;7.80;2.47;;;9.00;99.90;;;9.78;100.00;98016.19;4927665;29;20462;-76
2023/05/01 05:30:28;;;;;;;3.03;2.73;;;9.00;99.90;;;9.78;100.00;98019.63;4928345;29;20520;-76
2023/05/01 05:32:58;;;;;;;3.83;2.57;;;9.00;99.90;;;9.81;100.00;98019.25;4926794;29;20466;-76
2023/05/01 05:35:28;;;;;;;4.47;2.50;;;9.00;99.90;;;9.84;100.00;98023.28;4927601;29;20475;-76
2023/05/01 05:38:00;;;;;;;7.60;3.63;;;9.10;99.90;;;9.88;100.00;98019.31;4927021;29;20459;-76
2023/05/01 05:40:32;;;;;;;2.80;2.43;;;9.10;99.90;;;9.91;100.00;98018.94;4927739;29;20475;-77
2023/05/01 05:43:02;;;;;;;3.50;2.70;;;9.20;99.90;;;9.92;100.00;98010.94;4926945;29;20477;-77
2023/05/01 05:45:34;;;;;;;3.00;2.70;;;9.20;99.90;;;9.95;100.00;98014.97;4924810;29;20471;-77
2023/05/01 05:48:04;;;;;;;2.80;2.53;;;9.20;99.90;;;9.96;100.00;98017.41;4927006;29;20462;-76
2023/05/01 05:50:33;;;;;;;6.67;3.20;;;9.20;99.90;;;10.00;100.00;98015.22;4927529;29;20498;-77
2023/05/01 05:53:04;;;;;;;6.23;2.90;;;9.30;99.90;;;10.04;100.00;98013.88;4925512;29;20914;-76
2023/05/01 05:55:34;;;;;;;5.23;3.40;;;9.30;99.90;;;10.06;100.00;98011.91;4925452;29;20475;-77
2023/05/01 05:58:04;;;;;;;3.80;2.43;;;9.30;99.90;;;10.08;100.00;97999.44;4925910;29;20478;-76
2023/05/01 06:00:33;;;;;;;4.37;2.73;;;9.30;99.90;;;10.11;100.00;98006.91;4925964;29;20483;-76
2023/05/01 06:03:02;;;;;;;3.40;2.93;;;9.40;99.90;;;10.13;100.00;98007.56;4927028;29;20882;-76
2023/05/01 06:05:33;;;;;;;2.50;2.30;;;9.40;99.90;;;10.15;100.00;98007.38;4927185;29;20466;-76
2023/05/01 06:08:05;;;;;;;3.93;2.60;;;9.40;99.90;;;10.19;100.00;98006.03;4927287;29;20561;-77
2023/05/01 06:10:35;;;;;;;4.00;2.67;;;9.50;99.90;;;10.23;100.00;98005.47;4927234;29;20506;-77
2023/05/01 06:13:07;;;;;;;4.60;2.50;;;9.50;99.90;;;10.28;100.00;98003.09;4927445;29;20466;-76
2023/05/01 06:15:43;;;;;;;4.90;2.90;;;9.50;99.90;;;10.31;100.00;98004.56;4921127;29;20870;-76
2023/05/01 06:18:12;;;;;;;3.97;2.37;;;9.60;99.90;;;10.34;100.00;97999.78;4920970;29;21010;-76
2023/05/01 06:20:42;;;;;;;3.07;2.60;;;9.60;99.90;;;10.38;100.00;98001.00;4921542;29;20481;-76
2023/05/01 06:23:14;;;;;;;3.07;2.43;;;9.60;99.90;;;10.43;100.00;97998.63;4922219;29;20551;-76
2023/05/01 06:25:44;;;;;;;2.90;2.60;;;9.70;99.90;;;10.47;100.00;97992.03;4919382;29;21171;-76
2023/05/01 06:28:14;;;;;;;3.50;2.30;;;9.70;99.90;;;10.51;100.00;97995.91;4918912;29;20705;-76
2023/05/01 06:30:44;;;;;;;4.17;3.07;;;9.80;99.90;;;10.52;100.00;97986.22;4922160;29;20491;-78
2023/05/01 06:33:13;;;;;;;3.20;2.50;;;9.80;99.90;;;10.58;100.00;97991.53;4923746;29;20477;-76
2023/05/01 06:35:43;;;;;;;5.30;2.60;;;9.90;99.90;;;10.65;100.00;97985.56;4924135;29;20561;-77
2023/05/01 06:38:14;;;;;;;2.60;2.40;;;9.90;99.90;;;10.70;100.00;97978.75;4925914;29;20586;-76
2023/05/01 06:40:45;;;;;;;3.50;2.43;;;10.00;99.90;;;10.75;100.00;97973.78;4922744;29;20943;-77
2023/05/01 06:43:16;;;;;;;4.13;2.57;;;10.10;99.90;;;10.80;100.00;97978.41;4925081;29;20503;-77
2023/05/01 06:45:45;;;;;;;2.97;2.50;;;10.10;99.90;;;10.86;100.00;97977.69;4924836;29;20485;-77
2023/05/01 06:48:16;;;;;;;3.10;2.80;;;10.10;99.90;;;10.92;100.00;97982.94;4921925;29;20491;-76
2023/05/01 06:50:46;;;;;;;4.63;2.63;;;10.10;99.90;;;10.99;100.00;97985.59;4925370;29;20497;-76
2023/05/01 06:53:18;;;;;;;2.50;2.30;;;10.20;99.90;;;11.07;100.00;97985.47;4924740;29;20964;-77
2023/05/01 06:55:47;;;;;;;3.17;2.07;;;10.30;99.90;;;11.15;100.00;97987.09;4922768;29;20470;-76
2023/05/01 06:58:17;;;;;;;2.50;2.30;;;10.40;99.90;;;11.20;100.00;97984.72;4925238;29;20463;-76
2023/05/01 07:00:54;;;;;;;3.40;2.57;;;10.50;99.90;;;11.28;100.00;97981.97;4925562;29;20462;-77
2023/05/01 07:03:26;;;;;;;3.47;2.50;;;10.60;99.90;;;11.32;100.00;97984.00;4924403;29;20463;-76
2023/05/01 07:05:56;;;;;;;3.10;1.97;;;10.60;99.90;;;11.38;100.00;97991.09;4923897;29;20477;-77
2023/05/01 07:08:28;;;;;;;7.83;2.83;;;10.70;99.90;;;11.46;100.00;97995.34;4924998;29;20549;-76
2023/05/01 07:10:57;;;;;;;5.07;2.40;;;10.80;99.90;;;11.51;100.00;97988.53;4922982;29;20585;-76
2023/05/01 07:13:27;;;;;;;3.37;2.50;;;10.90;99.90;;;11.55;100.00;97978.47;4924348;29;20477;-76
2023/05/01 07:15:56;;;;;;;8.53;2.70;;;11.00;99.90;;;11.59;100.00;97975.25;4924183;29;21029;-77
2023/05/01 07:18:27;;;;;;;4.47;2.50;;;10.90;99.90;;;11.69;100.00;97976.72;4924202;29;20463;-76
2023/05/01 07:20:57;;;;;;;9.83;2.57;;;11.00;99.90;;;11.76;100.00;97981.03;4925461;29;20461;-77
2023/05/01 07:23:28;;;;;;;9.27;2.80;;;11.10;99.90;;;11.85;100.00;97976.41;4924859;29;20474;-76
2023/05/01 07:25:58;;;;;;;6.73;2.40;;;11.20;99.90;;;11.92;100.00;97972.81;4924508;29;20844;-78
2023/05/01 07:28:27;;;;;;;9.30;3.80;;;11.30;99.90;;;12.01;100.00;97970.81;4923411;29;20549;-77
2023/05/01 07:30:57;;;;;;;6.50;3.00;;;11.40;99.90;;;12.04;100.00;97979.06;4921703;29;21136;-76
2023/05/01 07:33:28;;;;;;;4.93;2.40;;;11.40;99.90;;;12.10;100.00;97970.44;4923315;29;20466;-76
2023/05/01 07:35:59;;;;;;;5.70;2.30;;;11.40;99.90;;;12.16;100.00;97968.03;4924602;29;20470;-77
2023/05/01 07:38:30;;;;;;;5.77;2.63;;;11.50;99.90;;;12.22;100.00;97969.88;4923760;29;20553;-76
2023/05/01 07:40:59;;;;;;;4.37;2.60;;;11.50;99.90;;;12.29;100.00;97965.41;4923910;29;20529;-76
2023/05/01 07:43:29;;;;;;;3.77;2.30;;;11.60;99.90;;;12.34;100.00;97958.59;4922281;29;20474;-77
2023/05/01 07:46:00;;;;;;;2.87;2.10;;;11.70;99.90;;;12.37;100.00;97958.19;4923422;29;20465;-76
2023/05/01 07:48:33;;;;;;;3.20;2.13;;;11.80;99.90;;;12.42;100.00;97953.16;4922796;29;20490;-76
2023/05/01 07:51:05;;;;;;;4.30;2.13;;;11.80;99.90;;;12.48;100.00;97951.53;4923847;29;20604;-77
2023/05/01 07:53:39;;;;;;;5.37;2.60;;;11.80;99.90;;;12.51;100.00;97957.19;4923679;29;20463;-77
2023/05/01 07:56:10;;;;;;;6.43;2.37;;;11.80;99.90;;;12.57;100.00;97951.13;4922009;29;20489;-75
2023/05/01 07:58:41;;;;;;;3.37;1.97;;;11.90;99.90;;;12.61;100.00;97954.16;4924373;29;21219;-76
2023/05/01 08:01:10;;;;;;;5.03;2.30;;;11.90;99.90;;;12.69;100.00;97950.53;4922601;29;20592;-77
2023/05/01 08:03:40;;;;;;;13.77;2.90;;;12.00;99.90;;;12.71;100.00;97949.31;4923941;29;20922;-76
2023/05/01 08:06:11;;;;;;;4.43;2.30;;;12.00;99.90;;;12.75;100.00;97947.06;4924414;29;20525;-77
2023/05/01 08:08:43;;;;;;;2.53;2.00;;;12.10;99.90;;;12.82;100.00;97950.50;4922814;29;20965;-77
2023/05/01 08:11:12;;;;;;;4.97;2.23;;;12.10;99.90;;;12.88;100.00;97953.13;4922591;29;20490;-77
2023/05/01 08:13:43;;;;;;;7.43;2.20;;;12.30;99.90;;;12.95;100.00;97942.63;4925316;29;20470;-76
2023/05/01 08:16:12;;;;;;;5.20;2.57;;;12.50;99.90;;;13.01;100.00;97953.13;4928920;29;20466;-76
2023/05/01 08:18:42;;;;;;;7.37;2.60;;;12.40;99.90;;;13.05;100.00;97950.91;4929694;29;20560;-77
2023/05/01 08:21:12;;;;;;;2.93;2.07;;;12.30;99.90;;;13.14;100.00;97951.50;4928268;29;20474;-77
2023/05/01 08:23:44;;;;;;;3.43;2.03;;;12.40;99.90;;;13.18;100.00;97950.91;4928508;29;20481;-77
2023/05/01 08:26:15;;;;;;;4.73;2.47;;;12.50;99.90;;;13.25;100.00;97951.69;4928575;29;20939;-76
2023/05/01 08:28:44;;;;;;;3.40;2.50;;;12.70;99.90;;;13.32;100.00;97946.41;4927951;29;21049;-77
2023/05/01 08:31:13;;;;;;;5.40;2.30;;;12.70;99.90;;;13.35;100.00;97949.44;4928121;29;20502;-76
2023/05/01 08:33:44;;;;;;;7.23;2.37;;;12.70;99.90;;;13.39;100.00;97942.75;4928133;29;20471;-77
2023/05/01 08:36:14;;;;;;;5.80;2.57;;;12.70;99.90;;;13.46;100.00;97943.53;4928200;29;20470;-76
2023/05/01 08:38:45;;;;;;;4.73;2.77;;;12.90;99.90;;;13.50;100.00;97942.09;4927888;29;20501;-76
2023/05/01 08:41:20;;;;;;;2.63;2.00;;;12.80;99.90;;;13.51;100.00;97941.09;4927404;29;20474;-76
2023/05/01 08:43:50;;;;;;;3.10;2.40;;;12.80;99.90;;;13.60;100.00;97944.31;4927096;29;20490;-77
2023/05/01 08:46:33;;;;;;;3.80;2.20;;;12.90;99.90;;;13.65;100.00;97941.03;4928356;29;20490;-78
2023/05/01 08:49:06;;;;;;;4.30;2.27;;;12.90;99.90;;;13.72;100.00;97941.81;4928581;29;20509;-78
2023/05/01 08:51:37;;;;;;;4.60;2.60;;;13.10;99.90;;;13.78;100.00;97941.00;4928326;29;20520;-76
2023/05/01 08:54:09;;;;;;;3.17;2.20;;;13.20;99.90;;;13.79;100.00;97938.13;4928433;29;20506;-77
2023/05/01 08:56:41;;;;;;;4.17;2.40;;;13.10;99.90;;;13.84;100.00;97935.69;4927855;29;20534;-77
2023/05/01 08:59:14;;;;;;;5.63;2.20;;;13.30;99.90;;;13.86;100.00;97933.66;4928367;29;20569;-77
2023/05/01 09:01:46;;;;;;;3.43;1.90;;;13.40;99.90;;;13.92;100.00;97937.25;4925627;29;20503;-77
2023/05/01 09:04:18;;;;;;;5.33;2.67;;;13.40;99.90;;;13.95;100.00;97939.47;4927832;29;20509;-78
2023/05/01 09:06:47;;;;;;;4.60;2.57;;;13.40;99.90;;;13.97;100.00;97929.56;4928706;29;20470;-77
2023/05/01 09:09:18;;;;;;;4.07;2.10;;;13.40;99.90;;;14.02;100.00;97935.78;4927582;29;20470;-77
2023/05/01 09:11:48;;;;;;;4.70;2.20;;;13.50;99.90;;;14.04;100.00;97928.50;4927119;29;21064;-77
2023/05/01 09:14:19;;;;;;;3.13;2.50;;;13.50;99.90;;;14.08;100.00;97931.50;4921704;29;20470;-78
2023/05/01 09:16:49;;;;;;;6.50;2.70;;;13.60;99.90;;;14.13;100.00;97929.84;4927981;29;20458;-78
2023/05/01 09:19:20;;;;;;;4.83;2.40;;;13.60;99.90;;;14.21;100.00;97931.41;4926846;29;20474;-77
2023/05/01 09:21:50;;;;;;;2.30;2.10;;;13.60;99.90;;;14.27;100.00;97925.31;4909753;29;21045;-77
2023/05/01 09:24:25;;;;;;;3.40;2.40;;;13.70;99.90;;;14.28;98.43;97920.84;4928051;29;20892;-77
2023/05/01 09:26:53;;;;;;;2.60;2.33;;;13.90;99.90;;;14.33;98.96;97921.84;4925581;29;20827;-77
2023/05/01 09:29:39;;;;;;;2.93;2.43;;;13.70;99.90;;;14.37;99.80;97923.03;4926965;29;20498;-76
2023/05/01 09:32:19;;;;;;;28.97;12.87;;;13.80;99.90;;;14.42;99.63;97922.41;4925804;29;20529;-75
2023/05/01 09:34:50;;;;;;;7.70;4.60;;;13.80;99.90;;;14.48;99.93;97917.09;4923621;29;20831;-77
2023/05/01 09:37:27;;;;;;;6.57;2.43;;;13.90;99.90;;;14.53;99.17;97914.63;4927027;29;20485;-77
2023/05/01 09:40:11;;;;;;;4.50;2.80;;;14.00;99.90;;;14.56;98.05;97910.75;4924598;29;20513;-77
2023/05/01 09:42:50;;;;;;;2.83;2.53;;;14.00;99.90;;;14.58;98.26;97908.69;4925370;29;20549;-77
2023/05/01 09:45:20;;;;;;;2.73;2.37;;;13.90;99.90;;;14.60;97.36;97910.13;4923025;29;20470;-77
2023/05/01 09:47:50;;;;;;;7.77;3.00;;;14.00;99.90;;;14.66;97.33;97907.63;4927651;29;20917;-77
2023/05/01 09:50:32;;;;;;;4.07;2.20;;;14.00;99.90;;;14.72;95.58;97906.75;4924967;29;20549;-76
2023/05/01 09:53:05;;;;;;;3.50;2.23;;;14.20;99.90;;;14.77;96.23;97909.56;4926177;29;20519;-77
2023/05/01 09:55:36;;;;;;;6.43;3.10;;;14.10;99.90;;;14.83;95.67;97903.41;4921878;29;20474;-77
2023/05/01 09:58:05;;;;;;;2.83;2.37;;;14.20;99.90;;;14.87;95.37;97896.69;4924707;29;20470;-77
2023/05/01 10:00:49;;;;;;;4.83;2.07;;;14.20;99.90;;;14.93;94.74;97899.25;4925355;29;20494;-77
2023/05/01 10:03:19;;;;;;;10.73;6.53;;;14.30;99.90;;;14.95;93.65;97891.97;4926194;29;20508;-76
2023/05/01 10:05:51;;;;;;;2.90;2.43;;;14.40;99.90;;;15.03;92.93;97888.22;4923402;29;20476;-77
2023/05/01 10:08:22;;;;;;;2.80;2.43;;;14.50;99.90;;;15.09;91.88;97880.28;4927958;29;20558;-78
2023/05/01 10:11:04;;;;;;;6.10;3.03;;;14.60;99.90;;;15.14;91.67;97882.22;4926238;29;20475;-77
2023/05/01 10:13:34;;;;;;;3.83;2.13;;;14.60;99.90;;;15.18;91.13;97886.03;4909312;29;21313;-77
2023/05/01 10:16:06;;;;;;;2.50;2.20;;;14.50;99.90;;;15.25;90.94;97885.94;4924472;29;20458;-76
2023/05/01 10:18:36;;;;;;;3.53;2.80;;;14.60;99.90;;;15.40;91.16;97883.75;4920642;29;20490;-77
2023/05/01 10:21:09;;;;;;;3.60;2.30;;;14.80;99.90;;;15.56;89.16;97883.97;4921835;29;20466;-76
2023/05/01 10:23:39;;;;;;;5.47;2.30;;;15.10;99.90;;;15.73;87.20;97883.34;4920862;29;20984;-77
2023/05/01 10:26:15;;;;;;;2.60;2.40;;;15.30;99.90;;;15.82;86.80;97884.66;4922166;29;20869;-76
2023/05/01 10:28:47;;;;;;;2.83;2.50;;;15.40;99.90;;;15.90;87.12;97884.31;4919659;29;21092;-76
2023/05/01 10:31:16;;;;;;;3.80;2.80;;;15.40;99.90;;;15.97;86.91;97885.03;4921790;29;20518;-76
2023/05/01 10:33:47;;;;;;;3.67;2.73;;;15.40;99.90;;;16.02;85.75;97885.19;4920521;29;20481;-76
2023/05/01 10:36:22;;;;;;;5.60;2.90;;;15.50;99.90;;;16.05;84.66;97877.63;4920664;29;20997;-76
2023/05/01 10:38:52;;;;;;;8.63;2.67;;;15.70;99.90;;;16.08;83.88;97877.16;4925130;29;20466;-76